Time;durP1;ratioP1;P1;durP2;ratioP2;P2;SDS_P1;SDS_P2;PMS_P1;PMS_P2;Temp;Humidity;BMP_temperature;BMP_pressure;BME280_temperature;BME280_humidity;BME280_pressure;Samples;Min_cycle;Max_cycle;Signal;HPM_P1;HPM_P2
2022/03/11 00:01:31;;;;;;;;;;;;;;;1.76;67.05;101218.13;5036892;28;1191;-88
2022/03/11 00:03:56;;;;;;;;;;;;;;;1.87;67.07;101222.94;5036613;28;1280;-88
2022/03/11 00:06:21;;;;;;;;;;;;;;;1.87;67.09;101220.25;5036823;28;1894;-87
2022/03/11 00:08:47;;;;;;;;;;;;;;;1.98;66.83;101207.97;5037454;28;1316;-87
2022/03/11 00:11:12;;;;;;;;;;;;;;;1.91;66.75;101213.38;5037539;28;1256;-87
2022/03/11 00:13:37;;;;;;;;;;;;;;;1.69;66.81;101214.59;5036349;28;1322;-87
2022/03/11 00:16:03;;;;;;;;;;;;;;;1.75;66.88;101211.91;5036476;28;1498;-87
2022/03/11 00:18:28;;;;;;;;;;;;;;;1.92;66.92;101206.09;5036656;28;1313;-87
2022/03/11 00:20:54;;;;;;;;;;;;;;;1.85;66.83;101203.41;5054813;28;1217;-88
2022/03/11 00:23:20;;;;;;;;;;;;;;;1.57;67.25;101205.44;5036623;28;1446;-88
2022/03/11 00:29:24;;;;;;;;;;;;;;;1.86;67.39;101205.06;5030815;28;1129;-88
2022/03/11 01:03:29;;;;;;;;;;;;;;;0.44;69.35;101195.19;5070226;28;1501;-87
2022/03/11 01:05:57;;;;;;;;;;;;;;;0.59;69.18;101195.91;5052872;28;1914;-87
2022/03/11 01:08:25;;;;;;;;;;;;;;;0.79;69.25;101196.84;5067555;28;1326;-87
2022/03/11 01:11:14;;;;;;;;;;;;;;;0.82;68.87;101198.31;5075940;28;1289;-87
2022/03/11 01:14:08;;;;;;;;;;;;;;;0.61;68.85;101191.97;5079573;28;1497;-87
2022/03/11 01:16:34;;;;;;;;;;;;;;;0.74;69.23;101196.63;5058976;28;1361;-88
2022/03/11 01:18:59;;;;;;;;;;;;;;;0.87;69.17;101187.75;5069962;28;1368;-87
2022/03/11 01:21:24;;;;;;;;;;;;;;;0.81;69.00;101194.78;5078837;28;1520;-88
2022/03/11 01:23:49;;;;;;;;;;;;;;;0.65;68.65;101193.25;5079404;28;1181;-87
2022/03/11 01:26:16;;;;;;;;;;;;;;;0.64;69.25;101186.19;5078943;28;1957;-88
2022/03/11 01:28:42;;;;;;;;;;;;;;;0.77;69.22;101186.25;5070009;28;1662;-87
2022/03/11 01:31:13;;;;;;;;;;;;;;;0.73;69.19;101190.41;5072107;28;1360;-88
2022/03/11 01:33:39;;;;;;;;;;;;;;;0.68;69.06;101182.06;5079840;28;1925;-87
2022/03/11 01:36:05;;;;;;;;;;;;;;;0.59;69.60;101185.97;5080699;28;1163;-87
2022/03/11 01:38:30;;;;;;;;;;;;;;;0.73;69.47;101179.63;5079538;28;1710;-87
2022/03/11 01:40:55;;;;;;;;;;;;;;;0.62;69.06;101179.34;5080563;28;1323;-87
2022/03/11 01:43:20;;;;;;;;;;;;;;;0.23;69.31;101175.38;5081777;28;1311;-87
2022/03/11 01:45:46;;;;;;;;;;;;;;;0.44;69.65;101179.03;5080766;28;1897;-87
2022/03/11 01:48:11;;;;;;;;;;;;;;;0.46;69.84;101185.03;5081864;28;2093;-87
2022/03/11 01:50:40;;;;;;;;;;;;;;;0.61;69.90;101183.06;5076888;28;1582;-86
2022/03/11 01:53:09;;;;;;;;;;;;;;;0.75;69.66;101182.13;5080071;28;1586;-86
2022/03/11 01:55:35;;;;;;;;;;;;;;;0.49;69.58;101172.03;5081481;28;1278;-87
2022/03/11 01:58:00;;;;;;;;;;;;;;;0.38;69.88;101173.41;5080837;28;1528;-88
2022/03/11 02:00:25;;;;;;;;;;;;;;;0.31;70.06;101164.47;5081982;28;1175;-87
2022/03/11 02:02:50;;;;;;;;;;;;;;;0.36;70.09;101169.25;5079284;28;1287;-87
2022/03/11 02:05:17;;;;;;;;;;;;;;;0.41;69.90;101168.66;5082451;28;1874;-86
2022/03/11 02:07:42;;;;;;;;;;;;;;;0.25;70.09;101173.34;5082582;28;1378;-86
2022/03/11 02:10:08;;;;;;;;;;;;;;;0.40;70.37;101173.22;5076248;28;1493;-87
2022/03/11 02:12:36;;;;;;;;;;;;;;;0.32;70.11;101166.13;5081707;28;1342;-87
2022/03/11 02:15:03;;;;;;;;;;;;;;;0.29;70.30;101163.81;5082345;28;1432;-87
2022/03/11 02:17:28;;;;;;;;;;;;;;;0.36;70.41;101164.69;5082951;28;1789;-87
2022/03/11 02:19:53;;;;;;;;;;;;;;;0.34;70.27;101155.97;5078063;28;1525;-87
2022/03/11 02:22:21;;;;;;;;;;;;;;;0.29;70.07;101158.44;5093739;28;1408;-85
2022/03/11 02:24:46;;;;;;;;;;;;;;;0.23;70.59;101156.53;5078895;28;1450;-86
2022/03/11 02:27:12;;;;;;;;;;;;;;;0.29;70.37;101158.44;5073373;28;1905;-86
2022/03/11 02:29:37;;;;;;;;;;;;;;;0.32;70.63;101158.06;5080810;28;1398;-87
2022/03/11 02:32:03;;;;;;;;;;;;;;;0.22;70.48;101151.34;5078925;28;1890;-86
2022/03/11 02:34:28;;;;;;;;;;;;;;;0.29;70.88;101153.06;5078945;28;1502;-87
2022/03/11 02:36:53;;;;;;;;;;;;;;;0.36;70.66;101158.47;5079174;28;1265;-86
2022/03/11 02:39:18;;;;;;;;;;;;;;;0.27;70.58;101156.97;5080527;28;1340;-86
2022/03/11 02:41:47;;;;;;;;;;;;;;;0.18;70.45;101150.06;5078391;28;1270;-87
2022/03/11 02:44:12;;;;;;;;;;;;;;;0.16;70.67;101155.66;5079546;28;1657;-86
2022/03/11 02:46:37;;;;;;;;;;;;;;;0.13;70.70;101153.34;5080806;28;1901;-87
2022/03/11 02:49:03;;;;;;;;;;;;;;;-0.14;71.19;101154.19;5080610;28;1819;-86
2022/03/11 02:51:28;;;;;;;;;;;;;;;-0.03;71.25;101151.78;5078817;28;1736;-86
2022/03/11 02:53:53;;;;;;;;;;;;;;;0.00;71.14;101154.06;5077936;28;1418;-86
2022/03/11 02:56:18;;;;;;;;;;;;;;;0.09;71.26;101148.53;5074808;28;1283;-87
2022/03/11 02:58:43;;;;;;;;;;;;;;;0.12;71.12;101151.69;5075790;28;1429;-86
2022/03/11 03:01:09;;;;;;;;;;;;;;;0.01;71.06;101146.84;5067695;28;1302;-86
2022/03/11 03:03:34;;;;;;;;;;;;;;;-0.07;71.23;101137.06;5074968;28;1764;-86
2022/03/11 03:05:59;;;;;;;;;;;;;;;-0.22;71.03;101155.16;5077042;28;1963;-86
2022/03/11 03:08:24;;;;;;;;;;;;;;;-0.18;71.64;101145.69;5080930;28;1382;-87
2022/03/11 03:10:49;;;;;;;;;;;;;;;-0.20;71.60;101146.88;5075221;28;1440;-86
2022/03/11 03:13:15;;;;;;;;;;;;;;;-0.09;71.72;101149.06;5079081;28;1728;-86
2022/03/11 03:15:40;;;;;;;;;;;;;;;-0.30;71.47;101147.22;5074149;28;1714;-87
2022/03/11 03:18:05;;;;;;;;;;;;;;;-0.28;71.83;101150.56;5064312;28;1293;-87
2022/03/11 03:20:31;;;;;;;;;;;;;;;-0.36;71.81;101149.84;5065024;28;1355;-86
2022/03/11 03:22:56;;;;;;;;;;;;;;;-0.41;71.83;101139.66;5071441;28;1447;-87
2022/03/11 03:25:21;;;;;;;;;;;;;;;-0.27;72.07;101141.47;5071023;28;1925;-86
2022/03/11 03:27:46;;;;;;;;;;;;;;;-0.34;71.95;101140.56;5078560;28;1543;-87
2022/03/11 03:30:11;;;;;;;;;;;;;;;-0.31;72.04;101142.03;5089027;28;1224;-87
2022/03/11 03:32:53;;;;;;;;;;;;;;;-0.29;72.04;101134.59;5101639;22;1873;-86
2022/03/11 03:35:30;;;;;;;;;;;;;;;-0.49;72.08;101140.63;5078071;28;1321;-87
2022/03/11 03:38:36;;;;;;;;;;;;;;;-0.33;72.15;101142.22;5098789;28;1466;-86
2022/03/11 03:41:19;;;;;;;;;;;;;;;-0.51;71.57;101129.22;5096827;28;1414;-86
2022/03/11 03:43:47;;;;;;;;;;;;;;;-0.58;71.96;101122.97;5097208;28;1550;-87
2022/03/11 03:46:38;;;;;;;;;;;;;;;-0.59;71.99;101126.66;5088545;28;1961;-86
2022/03/11 03:49:08;;;;;;;;;;;;;;;-0.61;72.20;101127.91;5085994;28;1301;-86
2022/03/11 03:51:55;;;;;;;;;;;;;;;-0.70;72.05;101124.50;5069292;28;1450;-87
2022/03/11 03:54:56;;;;;;;;;;;;;;;-0.72;72.50;101126.56;5102355;28;1303;-87
2022/03/11 04:00:23;;;;;;;;;;;;;;;-0.48;72.03;101133.41;5085766;28;1540;-87
2022/03/11 04:03:03;;;;;;;;;;;;;;;-0.59;71.80;101120.47;5083611;28;1283;-86
2022/03/11 04:05:57;;;;;;;;;;;;;;;;;;;;;
2022/03/11 04:12:42;;;;;;;;;;;;;;;;;;;;;
2022/03/11 04:14:39;;;;;;;;;;;;;;;-0.99;72.13;101112.00;5062651;22;2298;-85
2022/03/11 04:17:04;;;;;;;;;;;;;;;-0.77;72.20;101113.69;5056665;28;1474;-84
2022/03/11 04:19:29;;;;;;;;;;;;;;;-0.55;71.92;101106.44;5061487;28;1503;-85
2022/03/11 04:21:54;;;;;;;;;;;;;;;-0.49;71.56;101102.16;5057735;28;1431;-84
2022/03/11 04:24:21;;;;;;;;;;;;;;;-0.61;71.39;101093.78;5074150;28;1296;-85
2022/03/11 04:26:46;;;;;;;;;;;;;;;-0.66;71.53;101103.44;5045833;28;1975;-85
2022/03/11 04:29:12;;;;;;;;;;;;;;;-0.56;71.59;101093.19;5036358;28;1271;-84
2022/03/11 04:31:37;;;;;;;;;;;;;;;-0.76;71.39;101087.63;5048553;28;1404;-85
2022/03/11 04:34:03;;;;;;;;;;;;;;;-0.81;71.87;101085.53;5059065;28;1380;-83
2022/03/11 04:36:29;;;;;;;;;;;;;;;-0.75;71.57;101086.59;5059994;28;1526;-87
2022/03/11 04:38:54;;;;;;;;;;;;;;;-0.79;71.25;101086.19;5036193;28;1602;-85
2022/03/11 04:41:19;;;;;;;;;;;;;;;-0.86;71.41;101079.09;5056549;28;1824;-84
2022/03/11 04:43:45;;;;;;;;;;;;;;;-1.06;71.62;101081.56;5060029;28;1547;-86
2022/03/11 04:46:10;;;;;;;;;;;;;;;-0.99;72.00;101085.13;5052637;28;1897;-84
2022/03/11 04:48:36;;;;;;;;;;;;;;;-1.04;71.91;101084.06;5032286;28;1251;-84
2022/03/11 04:51:02;;;;;;;;;;;;;;;-1.13;72.12;101083.34;5035376;28;1449;-85
2022/03/11 04:53:27;;;;;;;;;;;;;;;-1.02;71.82;101092.75;5035848;28;1747;-83
2022/03/11 04:55:53;;;;;;;;;;;;;;;-1.10;71.69;101088.31;5036123;28;1374;-84
2022/03/11 04:58:18;;;;;;;;;;;;;;;-1.19;71.67;101092.97;5038004;28;1178;-84
2022/03/11 05:00:43;;;;;;;;;;;;;;;-1.18;71.88;101089.25;5052751;28;1600;-83
2022/03/11 05:03:08;;;;;;;;;;;;;;;-1.22;72.29;101082.63;5044229;28;1583;-84
2022/03/11 05:05:33;;;;;;;;;;;;;;;-1.16;71.97;101089.09;5031958;28;1957;-84
2022/03/11 05:08:00;;;;;;;;;;;;;;;-1.06;72.08;101086.09;5046011;28;1295;-85
2022/03/11 05:10:25;;;;;;;;;;;;;;;-1.13;71.48;101085.19;5042336;28;1443;-86
2022/03/11 05:12:50;;;;;;;;;;;;;;;-1.13;72.04;101086.03;5043580;28;1270;-85
2022/03/11 05:15:16;;;;;;;;;;;;;;;-1.39;71.68;101097.28;5056542;28;1367;-84
2022/03/11 05:17:41;;;;;;;;;;;;;;;-1.39;72.00;101099.16;5059093;28;1567;-84
2022/03/11 05:20:06;;;;;;;;;;;;;;;-1.32;72.01;101098.19;5043133;28;1356;-84
2022/03/11 05:22:32;;;;;;;;;;;;;;;-1.24;72.00;101092.72;5037989;28;1313;-82
2022/03/11 05:24:57;;;;;;;;;;;;;;;-1.23;72.03;101102.44;5052264;28;1734;-82
2022/03/11 05:27:22;;;;;;;;;;;;;;;-1.33;72.43;101096.53;5041660;28;1897;-84
2022/03/11 05:29:47;;;;;;;;;;;;;;;-1.33;72.39;101096.53;5057096;28;1375;-82
2022/03/11 05:32:14;;;;;;;;;;;;;;;-1.41;72.42;101106.53;5057538;28;983;-84
2022/03/11 05:34:40;;;;;;;;;;;;;;;-1.35;72.18;101097.72;5055118;28;1661;-82
2022/03/11 05:37:05;;;;;;;;;;;;;;;-1.51;72.40;101101.47;5036816;28;1647;-82
2022/03/11 05:39:31;;;;;;;;;;;;;;;-1.48;72.31;101106.47;5055265;28;908;-82
2022/03/11 05:41:56;;;;;;;;;;;;;;;-1.32;72.02;101102.75;5054112;28;817;-86
2022/03/11 05:44:22;;;;;;;;;;;;;;;-1.32;72.33;101108.09;5054010;28;1192;-84
2022/03/11 05:46:48;;;;;;;;;;;;;;;-1.36;71.99;101094.22;5054110;28;1899;-83
2022/03/11 05:49:13;;;;;;;;;;;;;;;-1.59;72.28;101098.88;5036688;28;1293;-82
2022/03/11 05:51:38;;;;;;;;;;;;;;;-1.53;72.33;101100.81;5069510;28;1493;-84
2022/03/11 05:54:06;;;;;;;;;;;;;;;-1.49;72.57;101104.81;5039384;28;1380;-84
2022/03/11 05:56:32;;;;;;;;;;;;;;;-1.58;72.33;101101.38;5029158;28;1429;-83
2022/03/11 05:58:57;;;;;;;;;;;;;;;-1.60;72.57;101100.72;5039095;28;1622;-86
2022/03/11 06:01:23;;;;;;;;;;;;;;;-1.66;72.23;101097.97;5048776;28;1223;-87
2022/03/11 06:03:48;;;;;;;;;;;;;;;-1.79;72.39;101101.31;5037556;28;1330;-86
2022/03/11 06:06:14;;;;;;;;;;;;;;;-1.66;72.88;101106.03;5071516;28;1902;-87
2022/03/11 06:08:39;;;;;;;;;;;;;;;-1.62;72.58;101107.31;5037820;28;1717;-87
2022/03/11 06:11:04;;;;;;;;;;;;;;;-1.67;72.20;101098.97;5025669;28;1252;-85
2022/03/11 06:13:29;;;;;;;;;;;;;;;-1.58;72.54;101095.19;5038053;28;1679;-85
2022/03/11 06:15:55;;;;;;;;;;;;;;;-1.58;72.08;101092.50;5038633;28;949;-86
2022/03/11 06:18:20;;;;;;;;;;;;;;;-1.63;72.16;101101.13;5038860;28;1307;-86
2022/03/11 06:20:45;;;;;;;;;;;;;;;-1.48;72.50;101097.59;5038845;28;841;-84
2022/03/11 06:23:10;;;;;;;;;;;;;;;-1.50;72.20;101100.44;5056216;28;991;-84
2022/03/11 06:25:36;;;;;;;;;;;;;;;-1.55;72.42;101098.34;5038513;28;1902;-85
2022/03/11 06:28:01;;;;;;;;;;;;;;;-1.48;72.47;101108.31;5056307;28;856;-85
2022/03/11 06:30:26;;;;;;;;;;;;;;;-1.40;72.51;101110.91;5038581;28;1164;-86
2022/03/11 06:32:51;;;;;;;;;;;;;;;-1.32;72.25;101108.94;5038680;28;1339;-85
2022/03/11 06:35:17;;;;;;;;;;;;;;;-1.27;72.26;101109.19;5038202;28;1262;-87
2022/03/11 06:37:43;;;;;;;;;;;;;;;-1.33;72.02;101112.66;5056272;28;888;-85
2022/03/11 06:40:08;;;;;;;;;;;;;;;-1.17;72.34;101106.22;5038382;28;1204;-87
2022/03/11 06:42:41;;;;;;;;;;;;;;;-1.14;72.30;101105.84;5038204;28;1275;-87
2022/03/11 06:45:07;;;;;;;;;;;;;;;-0.92;71.93;101112.06;5037786;28;1256;-85
2022/03/11 06:47:33;;;;;;;;;;;;;;;-0.85;71.29;101107.63;5038055;28;1171;-87
2022/03/11 06:49:58;;;;;;;;;;;;;;;-0.78;71.45;101105.81;5038013;28;1172;-87
2022/03/11 06:52:23;;;;;;;;;;;;;;;-0.78;71.49;101108.50;5037903;28;1215;-86
2022/03/11 06:54:48;;;;;;;;;;;;;;;-0.73;71.43;101100.69;5055608;28;1193;-87
2022/03/11 06:57:15;;;;;;;;;;;;;;;-0.48;70.64;101103.81;5055656;28;964;-86
2022/03/11 06:59:41;;;;;;;;;;;;;;;-0.18;69.59;101099.13;5037794;28;1250;-86
2022/03/11 07:02:06;;;;;;;;;;;;;;;-0.02;68.78;101091.56;5037702;28;1164;-86
2022/03/11 07:04:31;;;;;;;;;;;;;;;0.05;67.92;101105.06;5037624;28;1301;-86
2022/03/11 07:06:56;;;;;;;;;;;;;;;0.16;67.38;101095.63;5037487;28;1894;-86
2022/03/11 07:09:21;;;;;;;;;;;;;;;0.21;66.97;101099.38;5037441;28;1179;-86
2022/03/11 07:11:46;;;;;;;;;;;;;;;0.29;66.18;101087.59;5037604;28;1197;-87
2022/03/11 07:14:12;;;;;;;;;;;;;;;0.34;65.75;101096.72;5037320;28;1362;-86
2022/03/11 07:16:37;;;;;;;;;;;;;;;0.42;65.29;101085.00;5037845;28;1172;-86
2022/03/11 07:19:02;;;;;;;;;;;;;;;0.51;64.78;101091.03;5037282;28;1096;-87
2022/03/11 07:21:27;;;;;;;;;;;;;;;0.57;63.91;101090.22;5037345;28;964;-86
2022/03/11 07:23:54;;;;;;;;;;;;;;;0.62;63.30;101096.66;5037009;28;1268;-85
2022/03/11 07:26:19;;;;;;;;;;;;;;;0.70;62.69;101091.09;5055146;28;1957;-86
2022/03/11 07:28:44;;;;;;;;;;;;;;;0.77;62.00;101086.56;5037290;28;1187;-86
2022/03/11 07:31:10;;;;;;;;;;;;;;;0.81;61.34;101086.16;5055333;28;1043;-86
2022/03/11 07:33:35;;;;;;;;;;;;;;;0.83;60.98;101092.19;5036986;28;1408;-86
2022/03/11 07:36:00;;;;;;;;;;;;;;;0.85;60.77;101077.47;5037279;28;1201;-86
2022/03/11 07:38:31;;;;;;;;;;;;;;;0.89;60.33;101083.28;5055195;28;826;-85
2022/03/11 07:40:56;;;;;;;;;;;;;;;0.96;59.62;101084.97;5037490;28;1248;-86
2022/03/11 07:43:21;;;;;;;;;;;;;;;0.98;59.33;101088.31;5037020;28;1315;-86
2022/03/11 07:45:46;;;;;;;;;;;;;;;1.03;58.81;101087.69;5055213;28;1906;-87
2022/03/11 07:48:11;;;;;;;;;;;;;;;1.06;58.21;101076.50;5037272;28;1215;-87
2022/03/11 07:50:37;;;;;;;;;;;;;;;1.08;58.10;101086.06;5037275;28;1334;-86
2022/03/11 07:53:02;;;;;;;;;;;;;;;1.08;57.56;101077.97;5054364;28;1098;-85
2022/03/11 07:55:27;;;;;;;;;;;;;;;1.11;57.25;101072.13;5036974;28;1353;-86
2022/03/11 07:57:52;;;;;;;;;;;;;;;1.18;57.01;101079.44;5037318;28;1254;-87
2022/03/11 08:00:17;;;;;;;;;;;;;;;1.25;56.92;101073.00;5037363;28;1062;-86
2022/03/11 08:02:43;;;;;;;;;;;;;;;1.28;56.58;101064.50;5055137;28;1163;-85
2022/03/11 08:05:14;;;;;;;;;;;;;;;1.33;56.22;101078.22;5036746;28;1218;-86
2022/03/11 08:07:39;;;;;;;;;;;;;;;1.38;55.85;101072.19;5036824;28;1256;-86
2022/03/11 08:10:05;;;;;;;;;;;;;;;1.38;55.59;101069.47;5036845;28;1342;-86
2022/03/11 08:12:30;;;;;;;;;;;;;;;1.40;55.40;101073.63;5054752;28;864;-86
2022/03/11 08:14:57;;;;;;;;;;;;;;;1.42;55.11;101062.66;5040057;28;1378;-87
2022/03/11 08:17:23;;;;;;;;;;;;;;;1.45;55.07;101068.44;5036387;28;1375;-86
2022/03/11 08:19:48;;;;;;;;;;;;;;;1.52;54.28;101063.06;5035686;28;1315;-86
2022/03/11 08:22:13;;;;;;;;;;;;;;;1.57;54.09;101059.75;5054126;28;1066;-87
2022/03/11 08:24:39;;;;;;;;;;;;;;;1.56;53.92;101066.16;5036327;28;1279;-87
2022/03/11 08:27:05;;;;;;;;;;;;;;;1.52;53.81;101061.22;5036206;28;1953;-87
2022/03/11 08:29:33;;;;;;;;;;;;;;;1.57;53.74;101057.88;5036590;28;1351;-87
2022/03/11 08:31:59;;;;;;;;;;;;;;;1.63;53.18;101059.72;5054299;28;813;-86
2022/03/11 08:34:24;;;;;;;;;;;;;;;1.68;52.86;101057.25;5036049;28;1230;-87
2022/03/11 08:36:49;;;;;;;;;;;;;;;1.72;52.74;101055.78;5054126;28;1019;-88
2022/03/11 08:39:14;;;;;;;;;;;;;;;1.75;52.46;101049.16;5053732;28;735;-87
2022/03/11 08:41:39;;;;;;;;;;;;;;;1.79;52.17;101044.97;5035859;28;1214;-86
2022/03/11 08:44:06;;;;;;;;;;;;;;;1.82;51.70;101040.00;5035620;28;1215;-87
2022/03/11 08:46:31;;;;;;;;;;;;;;;1.88;51.51;101035.63;5036029;28;1941;-87
2022/03/11 08:48:56;;;;;;;;;;;;;;;1.96;50.75;101037.28;5036327;28;1228;-87
2022/03/11 08:51:21;;;;;;;;;;;;;;;1.95;50.65;101038.34;5036190;28;1207;-86
2022/03/11 08:53:48;;;;;;;;;;;;;;;2.00;50.56;101038.50;5035633;28;1385;-87
2022/03/11 08:56:15;;;;;;;;;;;;;;;2.15;50.10;101034.53;5035778;28;1239;-86
2022/03/11 08:58:40;;;;;;;;;;;;;;;2.14;50.07;101032.03;5053708;28;887;-87
2022/03/11 09:01:05;;;;;;;;;;;;;;;2.10;49.95;101028.09;5035917;28;1238;-86
2022/03/11 09:03:30;;;;;;;;;;;;;;;2.13;49.52;101025.78;5035339;28;1208;-87
2022/03/11 09:05:56;;;;;;;;;;;;;;;2.21;50.06;101022.06;5053849;28;1906;-87
2022/03/11 09:08:21;;;;;;;;;;;;;;;2.27;49.49;101016.63;5035917;28;1279;-88
2022/03/11 09:10:46;;;;;;;;;;;;;;;2.39;49.55;101016.78;5053453;28;1702;-87
2022/03/11 09:13:12;;;;;;;;;;;;;;;2.43;49.39;101014.47;5053699;28;825;-87
2022/03/11 09:15:37;;;;;;;;;;;;;;;2.46;49.61;101017.59;5035812;28;1214;-86
2022/03/11 09:18:02;;;;;;;;;;;;;;;2.51;48.68;101017.78;5069210;28;1035;-87
2022/03/11 09:20:27;;;;;;;;;;;;;;;2.56;48.54;101015.25;5035851;28;1141;-88
2022/03/11 09:22:53;;;;;;;;;;;;;;;2.57;48.01;101024.19;5053475;28;801;-87
2022/03/11 09:25:18;;;;;;;;;;;;;;;2.63;47.77;101012.53;5035494;28;1874;-87
2022/03/11 09:27:43;;;;;;;;;;;;;;;2.70;47.67;101012.50;5053731;28;1047;-86
2022/03/11 09:30:09;;;;;;;;;;;;;;;2.75;47.39;101020.75;5053667;28;995;-88
2022/03/11 09:32:34;;;;;;;;;;;;;;;2.78;46.81;101017.63;5039600;28;1385;-87
2022/03/11 09:34:59;;;;;;;;;;;;;;;2.79;46.74;101016.59;5039512;28;1528;-85
2022/03/11 09:37:25;;;;;;;;;;;;;;;2.79;46.81;101012.03;5039346;28;1283;-87
2022/03/11 09:39:50;;;;;;;;;;;;;;;2.87;46.73;101008.22;5057343;28;1062;-86
2022/03/11 09:42:15;;;;;;;;;;;;;;;2.98;46.91;101010.22;5057232;28;1003;-86
2022/03/11 09:44:48;;;;;;;;;;;;;;;3.04;46.55;101002.06;5039038;28;1219;-86
2022/03/11 09:47:14;;;;;;;;;;;;;;;3.13;46.34;100991.81;5039420;28;1914;-86
2022/03/11 09:49:39;;;;;;;;;;;;;;;3.15;46.47;100995.13;5039353;28;1247;-86
2022/03/11 09:52:08;;;;;;;;;;;;;;;3.20;46.17;100984.47;5039289;28;1241;-86
2022/03/11 09:54:34;;;;;;;;;;;;;;;3.26;45.64;100986.28;5038538;28;1576;-86
2022/03/11 09:56:59;;;;;;;;;;;;;;;3.27;45.19;100987.97;5038599;28;1400;-85
2022/03/11 09:59:25;;;;;;;;;;;;;;;3.22;45.44;100968.88;5038609;28;1535;-85
2022/03/11 10:01:51;;;;;;;;;;;;;;;3.27;45.32;100969.03;5023532;28;1389;-86
2022/03/11 10:04:16;;;;;;;;;;;;;;;3.31;45.06;100970.25;5035607;28;1292;-87
2022/03/11 10:06:45;;;;;;;;;;;;;;;3.39;44.89;100961.84;5056704;28;1957;-86
2022/03/11 10:09:16;;;;;;;;;;;;;;;3.45;44.61;100965.53;5038862;28;1247;-88
2022/03/11 10:11:41;;;;;;;;;;;;;;;3.47;44.83;100966.16;5039035;28;1393;-86
2022/03/11 10:14:08;;;;;;;;;;;;;;;3.48;44.36;100959.69;5060207;28;1522;-86
2022/03/11 10:16:34;;;;;;;;;;;;;;;3.51;44.55;100959.22;5025266;28;1298;-87
2022/03/11 10:19:00;;;;;;;;;;;;;;;3.56;44.54;100958.56;5056657;28;1824;-86
2022/03/11 10:21:33;;;;;;;;;;;;;;;3.60;44.12;100965.16;5056750;28;1014;-87
2022/03/11 10:23:58;;;;;;;;;;;;;;;3.68;43.64;100959.47;5056175;28;1309;-86
2022/03/11 10:26:33;;;;;;;;;;;;;;;3.79;43.58;100956.03;5038558;28;1902;-87
2022/03/11 10:28:59;;;;;;;;;;;;;;;3.83;43.25;100951.81;5055663;28;1454;-86
2022/03/11 10:31:32;;;;;;;;;;;;;;;3.82;43.03;100947.47;5029747;28;1311;-86
2022/03/11 10:34:16;;;;;;;;;;;;;;;3.83;43.38;100937.47;5020563;28;1361;-86
2022/03/11 10:36:51;;;;;;;;;;;;;;;3.87;42.97;100939.47;5040695;28;1322;-86
2022/03/11 10:39:17;;;;;;;;;;;;;;;3.92;42.90;100936.91;5023554;28;1623;-86
2022/03/11 10:41:43;;;;;;;;;;;;;;;3.96;42.91;100932.72;5023959;28;1708;-87
2022/03/11 10:44:09;;;;;;;;;;;;;;;4.07;42.62;100933.84;5037575;28;1645;-87
2022/03/11 10:46:34;;;;;;;;;;;;;;;4.13;42.41;100932.94;5056282;28;1901;-88
2022/03/11 10:49:00;;;;;;;;;;;;;;;4.13;42.46;100931.03;5038395;28;1169;-85
2022/03/11 10:51:27;;;;;;;;;;;;;;;4.13;41.99;100930.22;5038354;28;1292;-86
2022/03/11 10:53:52;;;;;;;;;;;;;;;4.21;41.67;100935.31;5037733;28;1769;-86
2022/03/11 10:56:25;;;;;;;;;;;;;;;4.23;41.88;100918.84;5056248;28;951;-87
2022/03/11 10:58:50;;;;;;;;;;;;;;;4.19;41.97;100913.88;5035584;28;1525;-87
2022/03/11 11:01:32;;;;;;;;;;;;;;;4.26;41.82;100921.91;5036735;28;912;-88
2022/03/11 11:03:57;;;;;;;;;;;;;;;4.36;41.37;100919.47;5027909;28;1859;-87
2022/03/11 11:06:22;;;;;;;;;;;;;;;4.45;41.39;100918.09;5071516;28;1894;-86
2022/03/11 11:08:48;;;;;;;;;;;;;;;4.49;41.24;100911.19;5032468;28;1598;-86
2022/03/11 11:11:13;;;;;;;;;;;;;;;4.55;40.34;100912.97;5038716;28;972;-87
2022/03/11 11:13:39;;;;;;;;;;;;;;;4.53;40.98;100917.78;5055226;28;1451;-87
2022/03/11 11:16:05;;;;;;;;;;;;;;;4.68;40.43;100901.06;5056474;28;1735;-87
2022/03/11 11:18:32;;;;;;;;;;;;;;;4.71;39.89;100910.63;5038381;28;1339;-86
2022/03/11 11:20:58;;;;;;;;;;;;;;;4.71;39.88;100903.34;5056853;28;1703;-88
2022/03/11 11:23:24;;;;;;;;;;;;;;;4.72;40.01;100896.03;5056218;28;1282;-87
2022/03/11 11:25:50;;;;;;;;;;;;;;;4.76;40.19;100889.94;5035093;28;1957;-86
2022/03/11 11:28:17;;;;;;;;;;;;;;;4.82;39.98;100888.16;5055885;28;1408;-86
2022/03/11 11:30:43;;;;;;;;;;;;;;;4.93;39.97;100890.88;5038321;28;1563;-86
2022/03/11 11:33:09;;;;;;;;;;;;;;;4.95;39.35;100888.75;5053978;28;1345;-87
2022/03/11 11:35:36;;;;;;;;;;;;;;;5.00;39.35;100892.66;5034737;28;1505;-85
2022/03/11 11:38:02;;;;;;;;;;;;;;;5.01;38.93;100880.75;5055794;28;1942;-87
2022/03/11 11:40:32;;;;;;;;;;;;;;;5.00;39.17;100887.25;5038096;28;1350;-87
2022/03/11 11:43:09;;;;;;;;;;;;;;;5.08;38.98;100871.44;5053435;28;1590;-85
2022/03/11 11:45:46;;;;;;;;;;;;;;;5.10;39.09;100868.50;5049881;28;1894;-85
2022/03/11 11:48:49;;;;;;;;;;;;;;;5.11;39.52;100873.66;5055114;28;1792;-87
2022/03/11 11:51:18;;;;;;;;;;;;;;;5.19;39.32;100864.38;5034569;28;1179;-88
2022/03/11 11:53:53;;;;;;;;;;;;;;;5.26;38.74;100852.34;5046303;28;1526;-86
2022/03/11 11:56:38;;;;;;;;;;;;;;;5.31;38.70;100832.59;5053269;28;1801;-86
2022/03/11 11:59:07;;;;;;;;;;;;;;;5.42;38.45;100853.50;5034822;28;1876;-87
2022/03/11 12:01:38;;;;;;;;;;;;;;;5.52;38.35;100844.75;5046848;28;1300;-85
2022/03/11 12:04:19;;;;;;;;;;;;;;;5.50;38.10;100844.16;5038529;28;1744;-87
2022/03/11 12:06:58;;;;;;;;;;;;;;;5.50;38.99;100831.41;5057991;28;1889;-87
2022/03/11 12:09:51;;;;;;;;;;;;;;;5.67;39.06;100823.34;5040199;28;1376;-87
2022/03/11 12:12:19;;;;;;;;;;;;;;;5.72;39.18;100823.44;5051919;28;1618;-88
2022/03/11 12:17:56;;;;;;;;;;;;;;;5.85;39.08;100822.34;5208424;22;1800;-87
2022/03/11 12:20:57;;;;;;;;;;;;;;;;;;;;;
2022/03/11 12:23:49;;;;;;;;;;;;;;;6.02;38.23;100825.97;5050813;28;1678;-87
2022/03/11 12:26:34;;;;;;;;;;;;;;;6.14;38.10;100815.84;5018906;28;1956;-87
2022/03/11 12:29:23;;;;;;;;;;;;;;;6.19;38.22;100815.16;5023198;28;1666;-87
2022/03/11 12:34:56;;;;;;;;;;;;;;;6.41;37.26;100802.47;4974436;28;1676;-86
2022/03/11 12:37:44;;;;;;;;;;;;;;;6.48;37.10;100805.88;5032140;28;1349;-87
2022/03/11 12:53:52;;;;;;;;;;;;;;;6.63;37.99;100787.09;5104387;28;1670;-87
2022/03/11 12:56:27;;;;;;;;;;;;;;;6.65;38.02;100784.94;5095797;28;1660;-86
2022/03/11 12:58:53;;;;;;;;;;;;;;;6.78;37.88;100779.19;5095513;28;1223;-88
2022/03/11 13:01:55;;;;;;;;;;;;;;;;;;;;;
2022/03/11 13:04:46;;;;;;;;;;;;;;;6.93;37.39;100773.13;5074900;28;1349;-85
2022/03/11 13:10:36;;;;;;;;;;;;;;;7.11;37.46;100756.53;5116636;28;1490;-86
2022/03/11 13:16:45;;;;;;;;;;;;;;;;;;;;;
2022/03/11 13:32:05;;;;;;;;;;;;;;;15.67;27.18;100727.94;4988793;28;1626;-86
2022/03/11 13:34:54;;;;;;;;;;;;;;;16.64;26.54;100737.59;5020219;28;1389;-85
2022/03/11 13:37:31;;;;;;;;;;;;;;;17.33;25.35;100730.47;5033820;28;1581;-86
2022/03/11 13:49:30;;;;;;;;;;;;;;;12.49;28.18;100737.88;4994435;28;1144;-86
2022/03/11 13:52:03;;;;;;;;;;;;;;;12.34;28.44;100723.41;4973728;28;1728;-89
2022/03/11 13:58:03;;;;;;;;;;;;;;;11.03;30.05;100724.91;5114721;28;1526;-85
2022/03/11 14:00:29;;;;;;;;;;;;;;;10.54;30.07;100736.50;5096306;28;1662;-84
2022/03/11 14:02:55;;;;;;;;;;;;;;;10.80;30.38;100732.63;5098197;28;1605;-84
2022/03/11 14:05:23;;;;;;;;;;;;;;;11.00;30.67;100732.59;5108766;28;1386;-84
2022/03/11 14:07:55;;;;;;;;;;;;;;;11.23;30.38;100719.34;5111971;28;1957;-85
2022/03/11 14:10:26;;;;;;;;;;;;;;;12.33;29.75;100711.66;5112013;28;1352;-84
2022/03/11 14:12:59;;;;;;;;;;;;;;;12.05;29.92;100726.13;5094662;28;1637;-85
2022/03/11 14:15:29;;;;;;;;;;;;;;;12.93;29.18;100714.13;5114383;28;1765;-85
2022/03/11 14:17:54;;;;;;;;;;;;;;;12.90;29.22;100712.75;5097674;28;1475;-84
2022/03/11 14:20:23;;;;;;;;;;;;;;;13.78;29.21;100704.00;5101146;28;1700;-88
2022/03/11 14:22:48;;;;;;;;;;;;;;;14.68;26.93;100708.38;5118593;28;1907;-87
2022/03/11 14:31:29;;;;;;;;;;;;;;;12.00;28.81;100705.00;4996703;28;1911;-86
2022/03/11 14:34:01;;;;;;;;;;;;;;;12.33;29.36;100697.94;4977475;28;1642;-85
2022/03/11 14:36:32;;;;;;;;;;;;;;;13.20;27.62;100689.63;5022847;28;1494;-85
2022/03/11 14:39:20;;;;;;;;;;;;;;;11.79;29.07;100698.03;5060052;28;1291;-86
2022/03/11 14:41:45;;;;;;;;;;;;;;;12.37;28.77;100693.47;5057961;22;3830;-86
2022/03/11 14:44:10;;;;;;;;;;;;;;;13.51;26.99;100687.34;5060060;28;1495;-88
2022/03/11 14:46:37;;;;;;;;;;;;;;;14.00;27.35;100690.47;5060552;28;1914;-87